.
WxDataArchive / Data Records for 2006-05-13
2006-05-12 May 2006 2006-05-14

Data Records for Saturday, 13 May 2006

Time	Temp	Chill	HIndex	Humid	Dewpt	 Wind 	HiWind	WindDir	Rain 	Barom 
-----	----	-----	------	-----	-----	------	------	-------	-----	----- 
00:00	43.5	43.5	43.5	87	39.9	1	3	248	0.00	29.630 
00:05	43.3	43.3	43.3	87	39.7	1	5	248	0.00	29.630 
00:10	43.2	43.2	43.2	87	39.6	1	3	248	0.00	29.630 
00:15	43.2	43.2	43.2	87	39.6	1	4	248	0.00	29.631 
00:20	43.1	43.1	43.1	87	39.5	1	2	248	0.00	29.631 
00:25	42.9	42.9	42.9	87	39.3	1	3	248	0.00	29.631 
00:30	42.8	42.8	42.8	87	39.2	1	5	270	0.00	29.633 
00:35	42.6	42.6	42.6	87	39.0	0	3	270	0.00	29.633 
00:40	42.5	42.5	42.5	88	39.2	0	2	270	0.00	29.633 
00:45	42.3	42.3	42.3	88	39.0	0	2	270	0.00	29.632 
00:50	42.2	42.2	42.2	88	38.9	0	1	270	0.00	29.632 
00:55	42.2	42.2	42.2	89	39.2	0	2	270	0.00	29.632 
01:00	42.2	42.2	42.2	89	39.2	0	3	270	0.00	29.636 
01:05	42.2	42.2	42.2	89	39.2	0	2	270	0.00	29.636 
01:10	42.3	42.3	42.3	89	39.3	0	2	270	0.00	29.636 
01:15	42.3	42.3	42.3	90	39.6	0	1	270	0.00	29.634 
01:20	42.3	42.3	42.3	89	39.3	1	3	270	0.00	29.634 
01:25	42.3	42.3	42.3	89	39.3	0	1	270	0.00	29.634 
01:30	42.3	42.3	42.3	89	39.3	0	2	270	0.00	29.632 
01:35	42.5	42.5	42.5	89	39.5	0	2	270	0.00	29.632 
01:40	42.5	42.5	42.5	90	39.8	0	1	270	0.00	29.632 
01:45	42.6	42.6	42.6	89	39.6	0	1	270	0.00	29.632 
01:50	42.6	42.6	42.6	89	39.6	0	1	270	0.00	29.632 
01:55	42.6	42.6	42.6	89	39.6	0	1	270	0.00	29.632 
02:00	42.6	42.6	42.6	89	39.6	0	1	270	0.00	29.630 
02:05	42.6	42.6	42.6	90	39.9	0	1	270	0.00	29.630 
02:10	42.6	42.6	42.6	90	39.9	0	1	270	0.00	29.630 
02:15	42.6	42.6	42.6	90	39.9	0	1	270	0.00	29.629 
02:20	42.6	42.6	42.6	90	39.9	0	2	270	0.00	29.629 
02:25	42.6	42.6	42.6	90	39.9	0	2	270	0.00	29.629 
02:30	42.8	42.8	42.8	90	40.1	0	1	292	0.00	29.627 
02:35	42.6	42.6	42.6	90	39.9	0	1	292	0.00	29.627 
02:40	42.6	42.6	42.6	90	39.9	0	0	---	0.00	29.627 
02:45	42.6	42.6	42.6	90	39.9	0	1	292	0.00	29.626 
02:50	42.6	42.6	42.6	90	39.9	0	1	292	0.00	29.626 
02:55	42.6	42.6	42.6	90	39.9	0	1	292	0.00	29.626 
03:00	42.6	42.6	42.6	90	39.9	0	1	292	0.00	29.624 
03:05	42.6	42.6	42.6	90	39.9	0	2	292	0.00	29.624 
03:10	42.6	42.6	42.6	90	39.9	0	1	292	0.00	29.624 
03:15	42.6	42.6	42.6	90	39.9	0	1	292	0.00	29.622 
03:20	42.6	42.6	42.6	90	39.9	0	1	292	0.00	29.622 
03:25	42.6	42.6	42.6	90	39.9	0	1	292	0.00	29.622 
03:30	42.8	42.8	42.8	90	40.1	0	1	292	0.00	29.625 
03:35	42.8	42.8	42.8	89	39.8	0	2	292	0.00	29.625 
03:40	42.9	42.9	42.9	89	39.9	0	2	22	0.00	29.625 
03:45	42.9	42.9	42.9	89	39.9	0	1	45	0.00	29.622 
03:50	42.9	42.9	42.9	89	39.9	0	2	45	0.00	29.622 
03:55	43.1	43.1	43.1	89	40.1	0	2	68	0.00	29.622 
04:00	43.1	43.1	43.1	89	40.1	0	2	68	0.00	29.625 
04:05	43.1	43.1	43.1	89	40.1	0	1	68	0.00	29.625 
04:10	43.2	43.2	43.2	89	40.2	0	1	68	0.00	29.625 
04:15	43.2	43.2	43.2	89	40.2	0	2	68	0.00	29.622 
04:20	43.2	43.2	43.2	89	40.2	0	2	68	0.00	29.622 
04:25	43.2	43.2	43.2	89	40.2	0	1	68	0.00	29.622 
04:30	43.2	43.2	43.2	89	40.2	0	2	68	0.00	29.624 
04:35	43.2	43.2	43.2	89	40.2	1	3	90	0.00	29.624 
04:40	43.3	43.3	43.3	89	40.3	0	2	90	0.00	29.624 
04:45	43.3	43.3	43.3	89	40.3	0	1	90	0.00	29.620 
04:50	43.3	43.3	43.3	89	40.3	0	1	90	0.00	29.620 
04:55	43.3	43.3	43.3	89	40.3	0	1	90	0.00	29.620 
05:00	43.3	43.3	43.3	89	40.3	0	2	90	0.00	29.615 
05:05	43.3	43.3	43.3	89	40.3	0	1	90	0.00	29.615 
05:10	43.5	43.5	43.5	89	40.5	0	1	90	0.00	29.615 
05:15	43.5	43.5	43.5	89	40.5	0	2	90	0.00	29.616 
05:20	43.5	43.5	43.5	89	40.5	0	2	90	0.00	29.616 
05:25	43.5	43.5	43.5	89	40.5	0	1	90	0.00	29.616 
05:30	43.6	43.6	43.6	90	40.9	0	2	90	0.00	29.614 
05:35	43.6	43.6	43.6	90	40.9	0	2	90	0.00	29.614 
05:40	43.6	43.6	43.6	90	40.9	0	1	90	0.00	29.614 
05:45	43.6	43.6	43.6	90	40.9	0	1	90	0.00	29.614 
05:50	43.6	43.6	43.6	90	40.9	0	2	90	0.00	29.614 
05:55	43.8	43.8	43.8	90	41.1	0	2	90	0.00	29.614 
06:00	43.8	43.8	43.8	90	41.1	1	3	112	0.00	29.620 
06:05	43.9	43.9	43.9	90	41.2	1	1	112	0.00	29.620 
06:10	43.9	43.9	43.9	90	41.2	1	2	112	0.00	29.620 
06:15	43.9	43.9	43.9	91	41.4	1	2	112	0.00	29.616 
06:20	44.1	44.1	44.1	91	41.6	1	2	90	0.00	29.616 
06:25	44.1	44.1	44.1	91	41.6	1	2	90	0.01	29.616 
06:30	44.1	44.1	44.1	91	41.6	0	2	135	0.00	29.620 
06:35	44.2	44.2	44.2	92	42.0	1	2	135	0.00	29.620 
06:40	44.3	44.3	44.3	92	42.1	1	3	112	0.00	29.620 
06:45	44.3	44.3	44.3	92	42.1	1	6	90	0.00	29.615 
06:50	44.5	44.5	44.5	92	42.3	1	4	112	0.00	29.615 
06:55	44.5	44.5	44.5	92	42.3	1	3	90	0.00	29.615 
07:00	44.6	44.6	44.6	92	42.4	1	6	90	0.00	29.623 
07:05	44.6	44.6	44.6	92	42.4	1	4	112	0.01	29.623 
07:10	44.8	44.8	44.8	92	42.6	1	4	112	0.00	29.623 
07:15	44.9	44.9	44.9	92	42.7	1	3	135	0.00	29.626 
07:20	44.9	44.9	44.9	92	42.7	0	3	90	0.00	29.626 
07:25	45.1	45.1	45.1	92	42.9	1	4	135	0.00	29.626 
07:30	45.1	45.1	45.1	92	42.9	2	6	112	0.00	29.625 
07:35	45.2	45.2	45.2	92	43.0	2	4	112	0.01	29.625 
07:40	45.2	45.2	45.2	92	43.0	2	5	90	0.00	29.625 
07:45	45.4	45.4	45.4	92	43.2	1	4	202	0.00	29.631 
07:50	45.5	45.5	45.5	92	43.3	1	4	90	0.00	29.631 
07:55	45.5	45.5	45.5	92	43.3	1	3	90	0.00	29.631 
08:00	45.7	45.7	45.7	92	43.5	1	3	90	0.01	29.633 
08:05	45.8	45.8	45.8	92	43.6	1	3	90	0.00	29.633 
08:10	45.8	45.8	45.8	92	43.6	1	4	112	0.00	29.633 
08:15	46.0	46.0	46.0	92	43.8	1	4	90	0.00	29.636 
08:20	46.0	46.0	46.0	92	43.8	1	4	112	0.01	29.636 
08:25	46.0	46.0	46.0	92	43.8	1	3	112	0.00	29.636 
08:30	46.1	46.1	46.1	92	43.9	1	4	68	0.00	29.636 
08:35	46.1	46.1	46.1	92	43.9	1	5	135	0.00	29.636 
08:40	46.1	46.1	46.1	92	43.9	1	5	90	0.00	29.636 
08:45	46.2	46.2	46.2	91	43.7	1	4	90	0.01	29.636 
08:50	46.4	46.4	46.4	91	43.9	1	2	135	0.00	29.636 
08:55	46.4	46.4	46.4	91	43.9	1	3	112	0.00	29.636 
09:00	46.5	46.5	46.5	91	44.0	1	3	90	0.00	29.637 
09:05	46.5	46.5	46.5	91	44.0	0	2	68	0.00	29.637 
09:10	46.4	46.4	46.4	91	43.9	2	5	90	0.01	29.637 
09:15	46.5	46.5	46.5	91	44.0	1	2	112	0.00	29.635 
09:20	46.5	46.5	46.5	91	44.0	2	5	90	0.00	29.635 
09:25	46.5	46.5	46.5	91	44.0	2	4	90	0.01	29.635 
09:30	46.7	46.7	46.7	92	44.5	2	5	90	0.00	29.639 
09:35	46.7	46.7	46.7	92	44.5	2	4	112	0.01	29.639 
09:40	46.8	46.8	46.8	92	44.6	1	3	90	0.00	29.639 
09:45	46.7	46.7	46.7	92	44.5	2	5	90	0.00	29.639 
09:50	46.8	46.8	46.8	92	44.6	2	6	90	0.01	29.639 
09:55	46.8	46.8	46.8	92	44.6	1	3	90	0.00	29.639 
10:00	46.8	46.8	46.8	91	44.3	2	5	90	0.00	29.641 
10:05	46.8	46.8	46.8	91	44.3	2	5	90	0.00	29.641 
10:10	46.8	46.8	46.8	91	44.3	2	4	112	0.00	29.641 
10:15	47.0	47.0	47.0	91	44.5	2	5	90	0.00	29.639 
10:20	47.0	47.0	47.0	91	44.5	2	5	90	0.01	29.639 
10:25	47.0	47.0	47.0	91	44.5	2	4	90	0.00	29.639 
10:30	47.1	47.1	47.1	90	44.3	2	5	90	0.00	29.640 
10:35	47.1	47.1	47.1	91	44.6	1	6	315	0.00	29.640 
10:40	47.3	47.3	47.3	91	44.8	1	4	315	0.00	29.640 
10:45	47.3	47.3	47.3	91	44.8	2	5	90	0.00	29.641 
10:50	47.4	47.4	47.4	91	44.9	1	3	112	0.01	29.641 
10:55	47.4	47.4	47.4	91	44.9	2	6	90	0.00	29.641 
11:00	47.4	47.4	47.4	90	44.6	2	5	90	0.00	29.641 
11:05	47.4	47.4	47.4	90	44.6	2	5	90	0.00	29.641 
11:10	47.4	47.4	47.4	90	44.6	2	6	112	0.01	29.641 
11:15	47.6	47.6	47.6	90	44.8	1	3	90	0.00	29.642 
11:20	47.6	47.6	47.6	91	45.1	1	5	90	0.01	29.642 
11:25	47.4	47.4	47.4	90	44.6	2	6	112	0.00	29.642 
11:30	47.4	47.4	47.4	90	44.6	2	5	68	0.00	29.644 
11:35	47.6	47.6	47.6	91	45.1	2	6	90	0.01	29.644 
11:40	47.9	47.9	47.9	91	45.4	2	11	90	0.00	29.644 
11:45	47.9	47.9	47.9	90	45.1	2	6	90	0.00	29.645 
11:50	48.2	48.2	48.2	91	45.7	2	4	90	0.00	29.645 
11:55	48.2	48.2	48.2	90	45.4	2	6	90	0.01	29.645 
12:00	48.3	48.3	48.3	90	45.5	2	4	90	0.00	29.648 
12:05	48.2	48.2	48.2	90	45.4	1	4	90	0.00	29.648 
12:10	48.0	48.0	48.0	90	45.2	2	4	112	0.01	29.648 
12:15	48.0	48.0	48.0	90	45.2	1	3	90	0.00	29.655 
12:20	48.0	48.0	48.0	90	45.2	2	3	90	0.01	29.655 
12:25	48.0	48.0	48.0	90	45.2	2	4	90	0.00	29.655 
12:30	48.0	48.0	48.0	90	45.2	2	5	112	0.01	29.653 
12:35	48.0	48.0	48.0	90	45.2	2	3	112	0.00	29.653 
12:40	47.9	47.9	47.9	90	45.1	2	5	90	0.01	29.653 
12:45	47.9	47.9	47.9	90	45.1	1	3	112	0.00	29.654 
12:50	48.0	48.0	48.0	90	45.2	1	3	112	0.00	29.654 
12:55	48.0	48.0	48.0	90	45.2	2	5	112	0.00	29.654 
13:00	48.2	48.2	48.2	90	45.4	1	5	90	0.00	29.656 
13:05	48.3	48.3	48.3	89	45.2	1	3	90	0.00	29.656 
13:10	48.3	48.3	48.3	89	45.2	1	3	90	0.00	29.656 
13:15	48.5	48.5	48.5	89	45.4	1	3	112	0.00	29.654 
13:20	48.5	48.5	48.5	89	45.4	1	3	135	0.00	29.654 
13:25	48.6	48.6	48.6	89	45.5	0	2	90	0.00	29.654 
13:30	48.6	48.6	48.6	90	45.8	0	1	90	0.00	29.654 
13:35	48.6	48.6	48.6	89	45.5	0	3	90	0.00	29.654 
13:40	48.6	48.6	48.6	90	45.8	2	5	248	0.01	29.654 
13:45	48.3	48.3	48.3	89	45.2	2	4	270	0.00	29.657 
13:50	48.3	48.3	48.3	90	45.5	1	4	270	0.00	29.657 
13:55	48.6	48.6	48.6	91	46.1	1	3	248	0.00	29.657 
14:00	48.6	48.6	48.6	89	45.5	1	3	248	0.00	29.656 
14:05	48.8	48.8	48.8	88	45.4	1	4	270	0.00	29.656 
14:10	49.1	49.1	49.1	87	45.4	1	4	248	0.00	29.656 
14:15	49.4	49.4	49.4	86	45.4	2	4	270	0.00	29.657 
14:20	49.5	49.5	49.5	86	45.5	1	4	248	0.00	29.657 
14:25	49.6	49.6	49.6	86	45.6	1	2	270	0.00	29.657 
14:30	49.8	49.8	49.8	85	45.5	1	3	248	0.00	29.659 
14:35	49.8	49.8	49.8	84	45.2	2	3	248	0.00	29.659 
14:40	50.1	50.1	50.1	86	46.1	1	3	270	0.00	29.659 
14:45	50.4	50.4	50.4	81	44.8	2	4	248	0.00	29.663 
14:50	50.4	50.4	50.4	81	44.8	1	4	248	0.00	29.663 
14:55	50.4	50.4	50.4	81	44.8	1	6	248	0.00	29.663 
15:00	50.4	50.4	50.4	81	44.8	1	4	248	0.00	29.658 
15:05	50.4	50.4	50.4	81	44.8	2	3	248	0.00	29.658 
15:10	50.7	50.7	50.7	83	45.7	1	3	248	0.00	29.658 
15:15	51.0	51.0	51.0	83	46.0	1	4	248	0.00	29.657 
15:20	51.3	51.3	51.3	81	45.7	1	4	248	0.00	29.657 
15:25	52.0	52.0	52.0	84	47.3	1	4	248	0.00	29.657 
15:30	52.3	52.3	52.3	81	46.6	1	4	248	0.00	29.658 
15:35	52.6	52.6	52.6	74	44.6	2	5	248	0.00	29.658 
15:40	52.5	52.5	52.5	77	45.5	1	4	248	0.00	29.658 
15:45	51.9	51.9	51.9	76	44.6	2	5	248	0.00	29.663 
15:50	51.4	51.4	51.4	76	44.1	2	6	248	0.00	29.663 
15:55	51.1	51.1	51.1	79	44.8	1	3	248	0.00	29.663 
16:00	51.0	51.0	51.0	76	43.7	2	5	292	0.00	29.665 
16:05	51.0	51.0	51.0	77	44.0	2	4	270	0.00	29.665 
16:10	51.0	51.0	51.0	77	44.0	2	3	248	0.00	29.665 
16:15	51.1	51.1	51.1	76	43.8	2	4	248	0.00	29.665 
16:20	51.7	51.7	51.7	76	44.4	2	5	248	0.00	29.665 
16:25	52.2	52.2	52.2	75	44.5	1	4	270	0.00	29.665 
16:30	52.9	52.9	52.9	75	45.2	2	4	248	0.00	29.661 
16:35	53.3	53.3	53.3	72	44.5	2	5	248	0.00	29.661 
16:40	53.3	53.3	53.3	72	44.5	2	5	248	0.00	29.661 
16:45	52.9	52.9	52.9	68	42.6	2	6	225	0.00	29.664 
16:50	52.8	52.8	52.8	69	42.9	2	6	248	0.00	29.664 
16:55	52.8	52.8	52.8	69	42.9	1	5	45	0.00	29.664 
17:00	53.1	53.1	53.1	67	42.4	2	7	248	0.00	29.666 
17:05	53.1	53.1	53.1	67	42.4	2	6	248	0.00	29.666 
17:10	52.8	52.8	52.8	69	42.9	2	7	270	0.00	29.666 
17:15	52.6	52.6	52.6	70	43.1	1	3	248	0.00	29.669 
17:20	52.2	52.2	52.2	69	42.3	1	4	248	0.00	29.669 
17:25	51.7	51.7	51.7	69	41.9	2	6	248	0.00	29.669 
17:30	51.3	51.3	51.3	70	41.9	2	6	248	0.00	29.681 
17:35	50.5	50.5	50.5	75	42.9	2	5	270	0.00	29.681 
17:40	49.8	49.8	49.8	76	42.5	0	3	270	0.00	29.681 
17:45	49.2	49.2	49.2	78	42.6	2	4	248	0.00	29.688 
17:50	48.8	48.8	48.8	80	42.9	2	4	248	0.00	29.688 
17:55	48.5	48.5	48.5	82	43.3	1	3	248	0.00	29.688 
18:00	48.2	48.2	48.2	81	42.6	1	3	248	0.00	29.693 
18:05	48.2	48.2	48.2	81	42.6	1	4	248	0.00	29.693 
18:10	48.2	48.2	48.2	81	42.6	0	2	225	0.00	29.693 
18:15	48.2	48.2	48.2	82	43.0	0	2	225	0.00	29.702 
18:20	48.3	48.3	48.3	83	43.4	0	3	225	0.00	29.702 
18:25	48.3	48.3	48.3	83	43.4	1	2	225	0.00	29.702 
18:30	48.3	48.3	48.3	83	43.4	0	2	225	0.00	29.704 
18:35	48.5	48.5	48.5	84	43.9	0	1	225	0.00	29.704 
18:40	48.3	48.3	48.3	83	43.4	0	2	248	0.00	29.704 
18:45	48.2	48.2	48.2	84	43.6	1	3	248	0.00	29.706 
18:50	48.3	48.3	48.3	84	43.7	0	2	248	0.00	29.706 
18:55	48.3	48.3	48.3	84	43.7	0	3	248	0.00	29.706 
19:00	48.6	48.6	48.6	85	44.3	0	2	248	0.00	29.705 
19:05	48.8	48.8	48.8	83	43.9	0	1	248	0.01	29.705 
19:10	48.9	48.9	48.9	84	44.3	0	1	248	0.00	29.705 
19:15	48.9	48.9	48.9	80	43.0	1	3	248	0.00	29.707 
19:20	49.1	49.1	49.1	80	43.2	1	3	248	0.00	29.707 
19:25	49.2	49.2	49.2	80	43.3	0	2	248	0.00	29.707 
19:30	49.4	49.4	49.4	79	43.2	0	2	248	0.00	29.713 
19:35	49.4	49.4	49.4	80	43.5	0	3	248	0.00	29.713 
19:40	49.4	49.4	49.4	81	43.8	0	3	248	0.00	29.713 
19:45	49.2	49.2	49.2	79	43.0	0	2	248	0.00	29.716 
19:50	49.1	49.1	49.1	80	43.2	0	2	225	0.00	29.716 
19:55	48.9	48.9	48.9	79	42.7	1	3	225	0.00	29.716 
20:00	48.8	48.8	48.8	80	42.9	1	4	248	0.00	29.718 
20:05	48.6	48.6	48.6	80	42.7	1	3	270	0.00	29.718 
20:10	48.6	48.6	48.6	80	42.7	1	3	248	0.00	29.718 
20:15	48.5	48.5	48.5	80	42.6	1	3	248	0.00	29.717 
20:20	48.3	48.3	48.3	79	42.1	1	3	248	0.00	29.717 
20:25	48.0	48.0	48.0	78	41.5	1	2	225	0.00	29.717 
20:30	47.9	47.9	47.9	77	41.0	1	4	248	0.00	29.725 
20:35	47.7	47.7	47.7	78	41.2	0	2	248	0.00	29.725 
20:40	47.6	47.6	47.6	79	41.4	1	3	248	0.00	29.725 
20:45	47.4	47.4	47.4	80	41.5	0	2	248	0.00	29.732 
20:50	47.3	47.3	47.3	81	41.8	0	3	248	0.00	29.732 
20:55	47.3	47.3	47.3	81	41.8	0	1	248	0.00	29.732 
21:00	47.1	47.1	47.1	81	41.6	0	2	248	0.00	29.733 
21:05	47.1	47.1	47.1	81	41.6	0	2	248	0.00	29.733 
21:10	47.1	47.1	47.1	81	41.6	0	2	248	0.00	29.733 
21:15	47.0	47.0	47.0	81	41.5	0	1	248	0.00	29.734 
21:20	47.0	47.0	47.0	81	41.5	0	1	248	0.00	29.734 
21:25	47.0	47.0	47.0	81	41.5	0	1	248	0.00	29.734 
21:30	47.0	47.0	47.0	82	41.8	0	1	248	0.00	29.734 
21:35	47.0	47.0	47.0	82	41.8	0	1	248	0.00	29.734 
21:40	46.8	46.8	46.8	82	41.6	0	1	248	0.00	29.734 
21:45	46.8	46.8	46.8	82	41.6	0	2	248	0.00	29.737 
21:50	46.8	46.8	46.8	83	41.9	0	0	---	0.00	29.737 
21:55	46.8	46.8	46.8	84	42.2	0	1	248	0.00	29.737 
22:00	46.7	46.7	46.7	84	42.1	0	1	248	0.00	29.745 
22:05	46.7	46.7	46.7	84	42.1	0	1	248	0.00	29.745 
22:10	46.5	46.5	46.5	84	41.9	0	1	248	0.00	29.745 
22:15	46.5	46.5	46.5	84	41.9	0	1	248	0.00	29.747 
22:20	46.5	46.5	46.5	84	41.9	0	1	248	0.00	29.747 
22:25	46.5	46.5	46.5	84	41.9	0	0	---	0.00	29.747 
22:30	46.4	46.4	46.4	85	42.1	0	0	---	0.00	29.747 
22:35	46.4	46.4	46.4	85	42.1	0	0	---	0.00	29.747 
22:40	46.2	46.2	46.2	86	42.2	0	0	---	0.00	29.747 
22:45	46.2	46.2	46.2	86	42.2	0	0	---	0.00	29.750 
22:50	46.1	46.1	46.1	86	42.1	0	0	---	0.00	29.750 
22:55	46.1	46.1	46.1	87	42.4	0	0	---	0.00	29.750 
23:00	46.0	46.0	46.0	87	42.4	0	0	---	0.00	29.749 
23:05	46.0	46.0	46.0	87	42.4	0	0	---	0.00	29.749 
23:10	46.0	46.0	46.0	87	42.4	0	0	---	0.00	29.749 
23:15	45.8	45.8	45.8	88	42.5	0	0	---	0.00	29.746 
23:20	45.8	45.8	45.8	88	42.5	0	0	---	0.00	29.746 
23:25	45.7	45.7	45.7	88	42.4	0	0	---	0.00	29.746 
23:30	45.7	45.7	45.7	88	42.4	0	0	---	0.00	29.748 
23:35	45.7	45.7	45.7	89	42.6	0	0	---	0.00	29.748 
23:40	45.5	45.5	45.5	89	42.4	0	0	---	0.00	29.748 
23:45	45.5	45.5	45.5	89	42.4	0	0	---	0.00	29.749 
23:50	45.4	45.4	45.4	89	42.3	0	0	---	0.00	29.749 
23:55	45.4	45.4	45.4	90	42.6	0	0	---	0.00	29.749 

CoCoRaHS
IN-AL-39
A2 Web Hosting
Creative Commons License
GoDaddy
Look for:

loaded 2017-10-19 20:17:39 • last modified 2010-11-18 10:43:29
Privacy PolicyDisclaimer
• wx.awcolley.com is powered by PmWiki v.2002016 •
• all content (unless otherwise noted) © 2017 A W Colley